首页
METAR-TAF:

METAR-TAF

机场 :

滑鐵盧區國際機場

滑铁卢, 安大略省, 加拿大

纬度: 43-28N, 经度: 080-23W, 海拔: 317米

当前天气观测

该预报发布于16分钟前的10:57 UTC
静风
温度 15°C
湿度 100%
气压 1022 hPa
能見度: 9.7公里
天空无云
轻雾

METAR: CYKF 271057Z AUTO 00000KT 6SM BR CLR 15/15 A3017 RMK SLP217

时间: 07:13 (11:13 UTC)

预报

该预报发布于1小时和36分钟前的09:37 UTC
预报有效从27日的 09点(UTC)到 27日的 20点(UTC)
风速3节,风向多变
能見度: 10公里
多云层高于25000英尺
短暂存在
从 27日的 09点(UTC)到 27日的 11点(UTC)
能見度: 0.8公里
成为
从 27日的 18点(UTC)到 27日的 20点(UTC)
风速6节,风向西

TAF: CYKF 270937Z 2709/2720 VRB03KT P6SM BKN250 TEMPO 2709/2711 1/2SM FG BECMG 2718/2720 26006KT RMK FCST BASED ON AUTO OBS. NXT FCST BY 271400Z

超过4000个机场的气象观测和天气预报(METAR&TAF报告)。

可查询的气象台以黄色和红色小点在地图上表示。

将鼠标移到小点上方,可查看气象台名称。

然后点击查看天气观测和预报。

如需切换地图:点击带黑十字的绿色按钮放大地图;点击带横线的绿色按钮缩小地图;或者点击绿色箭头查看邻近地区的地图。


METAR-TAF: